createdAt,value
2022-12-19T00:00:07.650Z,86.07
2022-12-19T00:02:39.097Z,85.98
2022-12-19T00:05:06.456Z,86.35
2022-12-19T00:07:33.305Z,86.65
2022-12-19T00:09:59.955Z,86.45
2022-12-19T00:12:26.487Z,86.61
2022-12-19T00:14:53.065Z,86.47
2022-12-19T00:17:19.648Z,86.73
2022-12-19T00:19:46.400Z,86.92
2022-12-19T00:22:12.993Z,86.57
2022-12-19T00:24:39.874Z,86.58
2022-12-19T00:27:06.615Z,86.69
2022-12-19T00:29:33.319Z,86.70
2022-12-19T00:31:59.932Z,86.74
2022-12-19T00:34:26.629Z,86.72
2022-12-19T00:36:53.137Z,86.71
2022-12-19T00:39:19.774Z,87.01
2022-12-19T00:41:46.294Z,86.78
2022-12-19T00:44:14.495Z,87.21
2022-12-19T00:46:41.894Z,87.14
2022-12-19T00:49:09.974Z,87.46
2022-12-19T00:51:37.727Z,87.46
2022-12-19T00:54:07.371Z,87.58
2022-12-19T00:56:37.375Z,87.77
2022-12-19T00:59:05.156Z,87.86
2022-12-19T01:01:34.842Z,88.06
2022-12-19T01:04:27.669Z,88.54
2022-12-19T01:06:52.002Z,88.59
2022-12-19T01:09:19.167Z,88.96
2022-12-19T01:12:04.213Z,88.69
2022-12-19T01:14:30.767Z,88.82
2022-12-19T01:16:57.353Z,89.07
2022-12-19T01:19:24.206Z,89.02
2022-12-19T01:21:50.760Z,89.54
2022-12-19T01:24:18.895Z,89.87
2022-12-19T01:26:46.097Z,90.09
2022-12-19T01:29:12.620Z,90.16
2022-12-19T01:31:39.198Z,90.24
2022-12-19T01:34:08.238Z,90.63
2022-12-19T01:36:39.595Z,90.65
2022-12-19T01:39:06.539Z,90.65
2022-12-19T01:41:33.228Z,90.98
2022-12-19T01:44:08.735Z,90.93
2022-12-19T01:46:54.166Z,91.33
2022-12-19T01:49:32.165Z,91.50
2022-12-19T01:52:06.434Z,91.62
2022-12-19T01:54:40.547Z,91.76
2022-12-19T01:57:13.973Z,91.67
2022-12-19T01:59:54.390Z,91.52
2022-12-19T02:02:28.334Z,91.78
2022-12-19T02:04:54.978Z,91.58
2022-12-19T02:07:24.181Z,91.69
2022-12-19T02:09:56.720Z,91.88
2022-12-19T02:12:25.802Z,91.73
2022-12-19T02:14:54.103Z,91.95
2022-12-19T02:17:35.625Z,91.68
2022-12-19T02:20:39.872Z,91.76
2022-12-19T02:23:33.379Z,91.65
2022-12-19T02:26:32.401Z,91.78
2022-12-19T02:29:16.663Z,91.71
2022-12-19T02:31:49.063Z,91.60
2022-12-19T02:34:21.729Z,91.51
2022-12-19T02:37:28.120Z,91.22
2022-12-19T02:40:11.884Z,91.11
2022-12-19T02:42:43.991Z,91.07
2022-12-19T02:45:15.623Z,90.75
2022-12-19T02:47:52.022Z,90.66
2022-12-19T02:50:19.018Z,90.36
2022-12-19T02:52:47.310Z,90.76
2022-12-19T02:55:21.581Z,90.44
2022-12-19T02:57:50.964Z,90.11
2022-12-19T03:00:20.662Z,90.08
2022-12-19T03:03:07.454Z,89.81
2022-12-19T03:05:34.064Z,89.70
2022-12-19T03:08:26.491Z,89.48
2022-12-19T03:10:59.048Z,89.31
2022-12-19T03:13:47.397Z,89.33
2022-12-19T03:16:14.811Z,89.22
2022-12-19T03:18:42.383Z,89.14
2022-12-19T03:21:20.551Z,89.47
2022-12-19T03:23:50.119Z,89.64
2022-12-19T03:26:20.011Z,89.58
2022-12-19T03:29:03.798Z,89.37
2022-12-19T03:31:33.325Z,89.61
2022-12-19T03:34:08.745Z,89.92
2022-12-19T03:36:41.674Z,89.94
2022-12-19T03:39:11.397Z,89.89
2022-12-19T03:41:58.177Z,89.60
2022-12-19T03:44:28.672Z,89.63
2022-12-19T03:47:03.571Z,89.66
2022-12-19T03:49:30.463Z,89.52
2022-12-19T03:52:10.843Z,89.52
2022-12-19T03:54:42.349Z,89.42
2022-12-19T03:57:34.186Z,89.23
2022-12-19T04:00:06.375Z,89.71
2022-12-19T04:02:38.185Z,89.52
2022-12-19T04:05:08.910Z,89.72
2022-12-19T04:07:37.668Z,90.16
2022-12-19T04:10:11.541Z,90.15
2022-12-19T04:12:42.902Z,90.62
2022-12-19T04:15:10.070Z,91.28
2022-12-19T04:17:57.887Z,91.62
2022-12-19T04:20:28.942Z,91.64
2022-12-19T04:23:34.759Z,92.56
2022-12-19T04:26:04.617Z,92.60
2022-12-19T04:28:42.046Z,92.92
2022-12-19T04:31:13.263Z,93.23
2022-12-19T04:33:39.803Z,93.25
2022-12-19T04:36:06.865Z,94.07
2022-12-19T04:38:33.610Z,94.27
2022-12-19T04:41:00.596Z,94.49
2022-12-19T04:43:27.209Z,94.27
2022-12-19T04:45:57.305Z,94.92
2022-12-19T04:48:24.013Z,95.19
2022-12-19T04:50:50.554Z,94.96
2022-12-19T04:53:17.263Z,95.16
2022-12-19T04:55:44.331Z,95.59
2022-12-19T04:58:11.491Z,95.75
2022-12-19T05:00:38.796Z,95.81
2022-12-19T05:03:05.451Z,96.09
2022-12-19T05:05:32.067Z,96.27
2022-12-19T05:07:58.657Z,96.55
2022-12-19T05:10:25.455Z,96.66
2022-12-19T05:12:54.452Z,96.50
2022-12-19T05:15:21.013Z,96.59
2022-12-19T05:17:47.526Z,96.99
2022-12-19T05:20:16.379Z,96.99
2022-12-19T05:22:42.887Z,97.45
2022-12-19T05:25:09.873Z,97.49
2022-12-19T05:27:36.428Z,97.14
2022-12-19T05:30:03.434Z,97.63
2022-12-19T05:32:32.123Z,97.64
2022-12-19T05:34:58.773Z,97.88
2022-12-19T05:37:25.438Z,98.19
2022-12-19T05:39:51.989Z,98.77
2022-12-19T05:42:18.618Z,98.95
2022-12-19T05:44:45.230Z,98.91
2022-12-19T05:47:11.791Z,98.38
2022-12-19T05:49:41.374Z,97.68
2022-12-19T05:52:07.904Z,97.86
2022-12-19T05:54:34.875Z,98.42
2022-12-19T05:57:01.626Z,97.58
2022-12-19T05:59:28.206Z,97.61
2022-12-19T06:01:55.045Z,97.66
2022-12-19T06:04:21.797Z,97.17
2022-12-19T06:06:48.372Z,97.26
2022-12-19T06:09:14.977Z,97.70
2022-12-19T06:11:41.808Z,97.83
2022-12-19T06:14:08.525Z,98.04
2022-12-19T06:16:35.183Z,98.09
2022-12-19T06:19:01.907Z,98.49
2022-12-19T06:21:28.509Z,98.40
2022-12-19T06:23:55.098Z,98.95
2022-12-19T06:26:22.754Z,98.57
2022-12-19T06:28:54.768Z,99.06
2022-12-19T06:31:23.851Z,99.25
2022-12-19T06:33:52.019Z,99.19
2022-12-19T06:36:44.574Z,99.00
2022-12-19T06:39:14.394Z,98.99
2022-12-19T06:42:00.239Z,99.40
2022-12-19T06:44:26.787Z,99.58
2022-12-19T06:46:54.293Z,99.46
2022-12-19T06:49:21.153Z,99.48
2022-12-19T06:51:47.833Z,99.42
2022-12-19T06:54:14.712Z,99.62
2022-12-19T06:56:44.145Z,99.33
2022-12-19T06:59:15.811Z,99.43
2022-12-19T07:01:42.965Z,99.58
2022-12-19T07:04:11.969Z,99.74
2022-12-19T07:06:39.199Z,99.89
2022-12-19T07:09:06.561Z,99.91
2022-12-19T07:11:33.128Z,99.91
2022-12-19T07:13:59.569Z,100.00
2022-12-19T07:16:27.544Z,99.73
2022-12-19T07:18:54.306Z,100.00
2022-12-19T07:21:20.939Z,99.80
2022-12-19T07:23:47.419Z,99.91
2022-12-19T07:26:13.914Z,99.98
2022-12-19T07:28:40.513Z,99.99
2022-12-19T07:31:06.973Z,100.00
2022-12-19T07:33:33.779Z,100.00
2022-12-19T07:36:00.480Z,100.00
2022-12-19T07:38:26.953Z,100.00
2022-12-19T07:40:53.472Z,99.95
2022-12-19T07:43:20.076Z,99.98
2022-12-19T07:45:46.613Z,100.00
2022-12-19T07:48:13.248Z,100.00
2022-12-19T07:50:40.709Z,99.97
2022-12-19T07:53:07.161Z,99.94
2022-12-19T07:55:33.679Z,100.00
2022-12-19T07:58:00.522Z,100.00
2022-12-19T08:00:27.046Z,100.00
2022-12-19T08:02:53.721Z,100.00
2022-12-19T08:05:20.430Z,100.00
2022-12-19T08:07:46.889Z,100.00
2022-12-19T08:10:15.002Z,100.00
2022-12-19T08:12:42.294Z,100.00
2022-12-19T08:15:09.435Z,100.00
2022-12-19T08:17:38.727Z,100.00
2022-12-19T08:20:08.108Z,100.00
2022-12-19T08:22:34.954Z,100.00
2022-12-19T08:25:01.425Z,100.00
2022-12-19T08:27:27.941Z,99.95
2022-12-19T08:29:54.438Z,100.00
2022-12-19T08:32:22.022Z,100.00
2022-12-19T08:34:49.926Z,100.00
2022-12-19T08:37:16.833Z,100.00
2022-12-19T08:39:43.403Z,100.00
2022-12-19T08:42:09.916Z,99.65
2022-12-19T08:44:36.414Z,100.00
2022-12-19T08:47:02.923Z,99.85
2022-12-19T08:49:29.413Z,99.87
2022-12-19T08:51:56.130Z,99.46
2022-12-19T08:54:22.683Z,99.57
2022-12-19T08:56:49.191Z,99.12
2022-12-19T08:59:21.119Z,98.93
2022-12-19T09:01:58.732Z,99.22
2022-12-19T09:06:02.643Z,99.07
2022-12-19T09:07:15.675Z,99.21
2022-12-19T09:09:42.693Z,99.08
2022-12-19T09:12:09.216Z,99.06
2022-12-19T09:14:36.306Z,99.15
2022-12-19T09:17:03.956Z,99.05
2022-12-19T09:19:31.692Z,99.35
2022-12-19T09:21:58.479Z,99.20
2022-12-19T09:24:24.960Z,99.16
2022-12-19T09:26:51.445Z,99.02
2022-12-19T09:29:20.908Z,99.23
2022-12-19T09:31:55.794Z,98.85
2022-12-19T09:34:31.767Z,99.12
2022-12-19T09:37:07.261Z,98.88
2022-12-19T09:39:35.578Z,98.90
2022-12-19T09:42:20.885Z,99.31
2022-12-19T09:45:04.285Z,99.31
2022-12-19T09:47:38.081Z,99.30
2022-12-19T09:50:22.932Z,99.06
2022-12-19T09:52:58.284Z,99.17
2022-12-19T09:55:40.609Z,98.86
2022-12-19T09:58:13.899Z,98.92
2022-12-19T10:00:44.690Z,98.65
2022-12-19T10:03:42.391Z,98.91
2022-12-19T10:07:07.708Z,98.63
2022-12-19T10:10:01.037Z,98.83
2022-12-19T10:12:39.411Z,98.90
2022-12-19T10:15:27.634Z,98.33
2022-12-19T10:18:15.609Z,98.51
2022-12-19T10:20:49.753Z,98.93
2022-12-19T10:23:42.463Z,98.52
2022-12-19T10:26:29.944Z,98.75
2022-12-19T10:29:14.723Z,98.79
2022-12-19T10:32:11.437Z,98.68
2022-12-19T10:34:42.239Z,98.49
2022-12-19T10:37:40.930Z,98.70
2022-12-19T10:40:20.011Z,98.46
2022-12-19T10:43:02.640Z,98.61
2022-12-19T10:45:46.875Z,97.88
2022-12-19T10:48:20.898Z,97.80
2022-12-19T10:50:52.270Z,98.00
2022-12-19T10:53:28.420Z,97.64
2022-12-19T10:56:00.701Z,97.40
2022-12-19T10:58:28.357Z,97.92
2022-12-19T11:01:10.141Z,97.77
2022-12-19T11:03:38.803Z,97.35
2022-12-19T11:06:06.607Z,97.89
2022-12-19T11:08:37.672Z,97.89
2022-12-19T11:14:29.789Z,97.63
2022-12-19T11:18:22.777Z,97.63
2022-12-19T11:22:18.800Z,97.71
2022-12-19T11:29:25.267Z,97.48
2022-12-19T11:29:37.952Z,97.22
2022-12-19T11:29:44.095Z,97.05
2022-12-19T11:29:45.795Z,97.60
2022-12-19T11:34:06.365Z,97.21
2022-12-19T11:36:49.622Z,96.97
2022-12-19T11:39:23.607Z,96.83
2022-12-19T11:42:20.086Z,96.80
2022-12-19T11:44:50.673Z,96.93
2022-12-19T11:47:26.285Z,96.53
2022-12-19T11:50:00.167Z,96.66
2022-12-19T11:53:04.463Z,96.57
2022-12-19T11:55:54.507Z,96.24
2022-12-19T11:58:24.190Z,95.81
2022-12-19T12:01:44.355Z,95.63
2022-12-19T12:04:44.433Z,95.91
2022-12-19T12:08:22.534Z,95.75
2022-12-19T12:15:10.232Z,95.68
2022-12-19T12:24:15.937Z,95.02
2022-12-19T12:26:03.331Z,95.37
2022-12-19T12:31:16.376Z,95.09
2022-12-19T12:31:16.639Z,94.75
2022-12-19T12:31:52.576Z,94.62
2022-12-19T12:32:02.054Z,94.87
2022-12-19T12:35:46.388Z,94.11
2022-12-19T12:40:39.437Z,93.92
2022-12-19T12:43:44.015Z,93.34
2022-12-19T12:46:20.302Z,93.27
2022-12-19T12:48:51.750Z,93.13
2022-12-19T12:51:18.741Z,93.12
2022-12-19T12:53:46.753Z,93.43
2022-12-19T12:56:16.474Z,92.39
2022-12-19T12:58:48.853Z,92.92
2022-12-19T13:01:26.001Z,92.39
2022-12-19T13:03:59.419Z,92.20
2022-12-19T13:06:46.193Z,91.72
2022-12-19T13:09:28.118Z,91.33
2022-12-19T13:12:22.788Z,91.21
2022-12-19T13:14:50.920Z,91.03
2022-12-19T13:17:32.907Z,90.87
2022-12-19T13:20:27.653Z,91.27
2022-12-19T13:23:00.434Z,91.15
2022-12-19T13:25:26.910Z,90.71
2022-12-19T13:28:01.444Z,90.75
2022-12-19T13:30:46.700Z,90.45
2022-12-19T13:33:22.136Z,90.31
2022-12-19T13:39:37.595Z,90.36
2022-12-19T13:40:01.589Z,89.92
2022-12-19T13:42:00.005Z,89.38
2022-12-19T13:44:26.720Z,89.30
2022-12-19T13:46:55.984Z,89.19
2022-12-19T13:49:34.878Z,88.85
2022-12-19T13:52:02.945Z,89.01
2022-12-19T13:54:45.567Z,88.74
2022-12-19T13:57:23.040Z,88.77
2022-12-19T13:59:59.960Z,88.76
2022-12-19T14:02:33.095Z,89.04
2022-12-19T14:05:33.781Z,88.94
2022-12-19T14:08:16.842Z,88.93
2022-12-19T14:11:35.050Z,89.04
2022-12-19T14:14:08.168Z,89.00
2022-12-19T14:16:44.753Z,88.48
2022-12-19T14:19:24.080Z,88.39
2022-12-19T14:22:09.748Z,88.23
2022-12-19T14:24:37.649Z,87.92
2022-12-19T14:28:24.645Z,88.65
2022-12-19T14:30:27.323Z,88.29
2022-12-19T14:33:44.122Z,87.64
2022-12-19T14:36:07.557Z,88.03
2022-12-19T14:39:24.815Z,88.59
2022-12-19T14:41:46.733Z,88.28
2022-12-19T14:51:51.824Z,88.56
2022-12-19T14:53:52.728Z,88.17
2022-12-19T14:54:17.514Z,88.33
2022-12-19T14:54:21.709Z,87.98
2022-12-19T14:56:02.118Z,87.43
2022-12-19T14:58:53.700Z,87.61
2022-12-19T15:01:25.922Z,87.77
2022-12-19T15:04:52.057Z,87.65
2022-12-19T15:07:08.677Z,87.71
2022-12-19T15:11:08.582Z,87.81
2022-12-19T15:14:50.942Z,87.58
2022-12-19T15:15:48.364Z,87.33
2022-12-19T15:18:23.899Z,87.63
2022-12-19T15:20:52.114Z,87.53
2022-12-19T15:23:22.268Z,87.22
2022-12-19T15:26:07.344Z,87.38
2022-12-19T15:28:49.903Z,86.76
2022-12-19T15:31:32.262Z,86.87
2022-12-19T15:34:32.840Z,86.82
2022-12-19T15:36:45.913Z,86.76
2022-12-19T15:39:12.455Z,86.84
2022-12-19T15:41:38.993Z,87.10
2022-12-19T15:44:36.890Z,86.90
2022-12-19T15:47:06.431Z,86.90
2022-12-19T15:49:35.081Z,86.91
2022-12-19T15:52:03.080Z,86.97
2022-12-19T15:57:26.233Z,87.09
2022-12-19T15:59:53.165Z,86.81
2022-12-19T16:02:25.403Z,86.95
2022-12-19T16:04:55.558Z,87.17
2022-12-19T16:07:26.540Z,87.49
2022-12-19T16:09:53.146Z,87.17
2022-12-19T16:12:27.100Z,87.34
2022-12-19T16:14:57.616Z,86.77
2022-12-19T16:17:26.250Z,86.49
2022-12-19T16:19:52.828Z,86.45
2022-12-19T16:22:22.845Z,86.12
2022-12-19T16:24:51.441Z,86.12
2022-12-19T16:27:26.824Z,86.02
2022-12-19T16:29:54.863Z,86.09
2022-12-19T16:32:25.691Z,86.48
2022-12-19T16:34:53.228Z,86.60
2022-12-19T16:37:19.785Z,86.35
2022-12-19T16:39:46.255Z,86.05
2022-12-19T16:42:15.924Z,86.65
2022-12-19T16:44:43.824Z,86.75
2022-12-19T16:47:15.158Z,86.63
2022-12-19T16:49:41.875Z,86.59
2022-12-19T16:52:08.629Z,86.34
2022-12-19T16:54:35.110Z,86.40
2022-12-19T16:57:06.649Z,85.87
2022-12-19T16:59:36.000Z,86.11
2022-12-19T17:02:03.272Z,85.38
2022-12-19T17:04:30.164Z,85.97
2022-12-19T17:06:56.752Z,85.69
2022-12-19T17:09:24.790Z,86.14
2022-12-19T17:12:01.053Z,86.36
2022-12-19T17:14:31.882Z,86.25
2022-12-19T17:16:59.331Z,85.98
2022-12-19T17:19:26.012Z,86.07
2022-12-19T17:21:52.981Z,85.91
2022-12-19T17:24:20.019Z,85.32
2022-12-19T17:26:47.162Z,85.83
2022-12-19T17:29:14.101Z,85.22
2022-12-19T17:31:41.519Z,85.48
2022-12-19T17:34:40.662Z,85.67
2022-12-19T17:37:14.771Z,86.08
2022-12-19T17:39:42.307Z,86.08
2022-12-19T17:42:22.973Z,86.09
2022-12-19T17:44:49.501Z,86.17
2022-12-19T17:47:19.727Z,86.03
2022-12-19T17:49:48.140Z,86.06
2022-12-19T17:52:17.572Z,86.03
2022-12-19T17:54:44.653Z,85.80
2022-12-19T17:57:16.000Z,85.77
2022-12-19T17:59:42.546Z,85.78
2022-12-19T18:02:20.761Z,86.40
2022-12-19T18:04:47.675Z,86.21
2022-12-19T18:07:18.001Z,86.06
2022-12-19T18:09:45.019Z,86.11
2022-12-19T18:12:11.630Z,86.27
2022-12-19T18:14:38.242Z,86.41
2022-12-19T18:17:05.366Z,85.90
2022-12-19T18:19:34.161Z,85.83
2022-12-19T18:22:00.668Z,85.58
2022-12-19T18:24:29.714Z,85.58
2022-12-19T18:26:56.222Z,85.02
2022-12-19T18:29:22.891Z,85.14
2022-12-19T18:31:51.236Z,85.39
2022-12-19T18:34:20.845Z,85.51
2022-12-19T18:36:48.253Z,85.47
2022-12-19T18:39:24.099Z,85.40
2022-12-19T18:41:51.210Z,85.23
2022-12-19T18:44:17.927Z,85.29
2022-12-19T18:46:45.449Z,84.91
2022-12-19T18:49:14.191Z,85.55
2022-12-19T18:51:40.770Z,85.41
2022-12-19T18:54:19.628Z,84.55
2022-12-19T18:56:46.201Z,83.91
2022-12-19T18:59:12.721Z,83.97
2022-12-19T19:01:42.650Z,84.25
2022-12-19T19:04:12.218Z,84.29
2022-12-19T19:06:40.304Z,84.59
2022-12-19T19:09:16.024Z,84.98
2022-12-19T19:11:42.581Z,84.49
2022-12-19T19:14:09.716Z,84.54
2022-12-19T19:16:39.926Z,84.59
2022-12-19T19:19:10.039Z,84.37
2022-12-19T19:21:37.273Z,84.53
2022-12-19T19:24:16.627Z,84.88
2022-12-19T19:26:43.197Z,84.50
2022-12-19T19:29:09.860Z,84.60
2022-12-19T19:31:40.831Z,84.82
2022-12-19T19:34:15.585Z,84.47
2022-12-19T19:36:46.345Z,84.52
2022-12-19T19:39:14.084Z,84.41
2022-12-19T19:41:40.623Z,84.62
2022-12-19T19:44:07.472Z,83.99
2022-12-19T19:46:33.996Z,84.28
2022-12-19T19:49:00.480Z,84.54
2022-12-19T19:51:29.046Z,84.41
2022-12-19T19:53:55.905Z,84.28
2022-12-19T19:56:22.486Z,84.29
2022-12-19T19:58:49.019Z,84.19
2022-12-19T20:01:15.673Z,83.99
2022-12-19T20:03:44.838Z,83.72
2022-12-19T20:06:12.176Z,83.96
2022-12-19T20:08:40.264Z,83.98
2022-12-19T20:11:08.366Z,84.18
2022-12-19T20:13:35.346Z,84.11
2022-12-19T20:16:08.447Z,84.47
2022-12-19T20:18:35.974Z,84.54
2022-12-19T20:21:04.725Z,84.27
2022-12-19T20:23:34.390Z,84.14
2022-12-19T20:26:05.072Z,84.42
2022-12-19T20:28:31.801Z,84.16
2022-12-19T20:30:58.609Z,84.26
2022-12-19T20:33:25.510Z,84.48
2022-12-19T20:35:56.896Z,83.94
2022-12-19T20:38:23.800Z,84.32
2022-12-19T20:40:55.884Z,84.01
2022-12-19T20:43:23.893Z,83.81
2022-12-19T20:45:51.032Z,84.25
2022-12-19T20:48:18.580Z,84.40
2022-12-19T20:50:45.049Z,84.55
2022-12-19T20:53:11.593Z,84.60
2022-12-19T20:55:38.093Z,84.16
2022-12-19T20:58:04.634Z,84.89
2022-12-19T21:00:31.079Z,84.20
2022-12-19T21:03:27.196Z,84.77
2022-12-19T21:05:44.832Z,84.53
2022-12-19T21:08:11.365Z,84.99
2022-12-19T21:10:38.029Z,84.68
2022-12-19T21:13:04.549Z,84.58
2022-12-19T21:15:31.455Z,84.85
2022-12-19T21:17:58.007Z,85.09
2022-12-19T21:20:33.913Z,85.12
2022-12-19T21:23:01.211Z,85.27
2022-12-19T21:25:27.885Z,85.19
2022-12-19T21:27:54.393Z,85.37
2022-12-19T21:30:21.060Z,85.31
2022-12-19T21:32:47.603Z,85.15
2022-12-19T21:35:14.115Z,85.48
2022-12-19T21:37:43.715Z,85.32
2022-12-19T21:40:10.922Z,85.18
2022-12-19T21:42:37.397Z,85.18
2022-12-19T21:45:04.168Z,85.22
2022-12-19T21:47:30.656Z,85.31
2022-12-19T21:49:57.115Z,85.39
2022-12-19T21:52:23.606Z,85.60
2022-12-19T21:54:50.263Z,85.64
2022-12-19T21:57:16.759Z,85.32
2022-12-19T21:59:43.331Z,85.80
2022-12-19T22:02:10.749Z,85.62
2022-12-19T22:04:37.291Z,85.63
2022-12-19T22:07:05.128Z,85.52
2022-12-19T22:09:32.010Z,85.71
2022-12-19T22:11:58.482Z,86.04
2022-12-19T22:14:25.515Z,85.67
2022-12-19T22:16:52.260Z,86.19
2022-12-19T22:19:19.555Z,86.19
2022-12-19T22:21:47.240Z,86.04
2022-12-19T22:24:16.369Z,85.86
2022-12-19T22:26:43.274Z,85.90
2022-12-19T22:29:14.671Z,86.10
2022-12-19T22:31:41.458Z,86.07
2022-12-19T22:34:13.233Z,85.68
2022-12-19T22:36:41.419Z,85.75
2022-12-19T22:39:19.664Z,85.88
2022-12-19T22:41:46.919Z,86.03
2022-12-19T22:44:20.288Z,85.67
2022-12-19T22:46:47.136Z,85.84
2022-12-19T22:49:14.304Z,85.93
2022-12-19T22:51:41.454Z,85.82
2022-12-19T22:54:08.314Z,86.14
2022-12-19T22:56:36.935Z,85.78
2022-12-19T22:59:06.460Z,86.11
2022-12-19T23:01:37.224Z,86.58
2022-12-19T23:04:05.392Z,86.27
2022-12-19T23:06:34.418Z,86.57
2022-12-19T23:09:01.683Z,86.66
2022-12-19T23:11:32.346Z,86.62
2022-12-19T23:14:00.547Z,86.99
2022-12-19T23:16:27.165Z,86.98
2022-12-19T23:18:53.779Z,87.09
2022-12-19T23:21:22.847Z,87.52
2022-12-19T23:23:52.159Z,87.35
2022-12-19T23:26:28.092Z,86.85
2022-12-19T23:29:00.623Z,86.77
2022-12-19T23:31:28.395Z,86.87
2022-12-19T23:33:55.829Z,86.99
2022-12-19T23:36:44.998Z,86.63
2022-12-19T23:39:11.198Z,86.95
2022-12-19T23:41:38.381Z,87.33
2022-12-19T23:44:05.272Z,86.97
2022-12-19T23:46:32.021Z,87.19
2022-12-19T23:48:58.572Z,87.13
2022-12-19T23:51:27.211Z,86.55
2022-12-19T23:53:55.493Z,86.71
2022-12-19T23:56:24.554Z,86.21
2022-12-19T23:58:51.650Z,85.82
